Data for 12/28/2015

Time Sea-Level Adjusted Pressure Absolute Pressure Temperature Relative Humidity Dew Point   
(mb) (inHg) (mb) (inHg) (C) (F) (%) (C) (F)
00:05 1016 30 845 24.95 -10.3 13.5 76 -13.7 7.4
00:10 1016 30 845 24.95 -10.3 13.5 73 -14.2 6.4
00:15 1015 29.97 845 24.95 -10.4 13.4 72 -14.4 6
00:20 1015 29.97 845 24.95 -10.4 13.2 73 -14.4 6.1
00:25 1015 29.97 845 24.95 -10.7 12.8 72 -14.7 5.5
00:30 1015 29.97 845 24.95 -10.9 12.5 73 -14.7 5.5
00:35 1015 29.97 845 24.95 -11 12.1 74 -14.8 5.3
00:40 1015 29.97 844 24.92 -11 12.2 75 -14.7 5.6
00:45 1015 29.97 844 24.92 -11 12.2 72 -15.1 4.9
00:50 1015 29.97 844 24.92 -10.7 12.8 68 -15.5 4
00:55 1015 29.97 844 24.92 -10.3 13.4 66 -15.5 4.1
01:00 1015 29.97 844 24.92 -10.1 13.7 65 -15.6 4
01:05 1015 29.97 844 24.92 -10 14 63 -15.7 3.8
01:10 1015 29.97 844 24.92 -9.8 14.4 62 -15.7 3.7
01:15 1015 29.97 844 24.92 -9.7 14.5 62 -15.7 3.8
01:20 1015 29.97 844 24.92 -9.5 14.9 60 -16 3.2
01:25 1015 29.97 844 24.92 -9.8 14.5 64 -15.3 4.4
01:30 1014 29.94 844 24.92 -10.2 13.7 65 -15.5 4
01:35 1014 29.94 844 24.92 -10.2 13.6 66 -15.4 4.2
01:40 1014 29.94 844 24.92 -10.2 13.7 66 -15.3 4.5
01:45 1014 29.94 843 24.89 -10.2 13.7 67 -15.2 4.6
01:50 1014 29.94 843 24.89 -10.2 13.7 69 -14.8 5.3
01:55 1014 29.94 843 24.89 -10 14 69 -14.6 5.7
02:00 1014 29.94 843 24.89 -9.8 14.4 69 -14.5 5.9
02:05 1014 29.94 843 24.89 -9.6 14.7 69 -14.3 6.3
02:10 1014 29.94 843 24.89 -9.4 15.1 68 -14.3 6.2
02:15 1014 29.94 843 24.89 -9.1 15.7 65 -14.5 5.9
02:20 1014 29.94 843 24.89 -8.8 16.2 63 -14.6 5.8
02:25 1014 29.94 843 24.89 -8.7 16.3 63 -14.5 6
02:30 1014 29.94 843 24.89 -8.8 16.2 64 -14.4 6.1
02:35 1014 29.94 843 24.89 -8.9 16 65 -14.3 6.2
02:40 1014 29.94 843 24.89 -8.7 16.3 63 -14.5 5.9
02:45 1014 29.94 843 24.89 -8.5 16.8 62 -14.5 5.9
02:50 1014 29.94 843 24.89 -8.5 16.8 64 -14.2 6.5
02:55 1014 29.94 843 24.89 -8.6 16.5 64 -14.2 6.5
03:00 1014 29.94 843 24.89 -8.6 16.4 64 -14.3 6.2
03:05 1014 29.94 843 24.89 -8.4 16.8 63 -14.3 6.3
03:10 1014 29.94 843 24.89 -8.3 17.1 62 -14.2 6.4
03:15 1014 29.94 843 24.89 -8.2 17.2 63 -14.1 6.6
03:20 1014 29.94 843 24.89 -8.3 17.1 65 -13.7 7.4
03:25 1014 29.94 843 24.89 -8.4 16.9 67 -13.4 7.8
03:30 1014 29.94 843 24.89 -8.7 16.4 70 -13.3 8.1
03:35 1014 29.94 843 24.89 -9 15.8 71 -13.3 8.1
03:40 1014 29.94 843 24.89 -9.3 15.3 72 -13.5 7.8
03:45 1014 29.94 843 24.89 -9.6 14.8 72 -13.7 7.4
03:50 1014 29.94 843 24.89 -9.8 14.4 73 -13.8 7.2
03:55 1014 29.94 843 24.89 -10 14.1 73 -14 6.9
04:00 1014 29.94 843 24.89 -10 13.9 73 -14.1 6.6
04:05 1014 29.94 843 24.89 -10.1 13.8 73 -14 6.8
04:10 1014 29.94 843 24.89 -10.2 13.6 75 -13.8 7.1
04:15 1014 29.94 843 24.89 -10.3 13.5 75 -13.8 7.1
04:20 1014 29.94 843 24.89 -10.4 13.2 76 -13.9 6.9
04:25 1014 29.94 843 24.89 -10.5 13.1 77 -13.9 7
04:30 1014 29.94 843 24.89 -10.5 13.2 77 -13.8 7.2
04:35 1013 29.91 843 24.89 -10.5 13.1 78 -13.7 7.4
04:40 1013 29.91 842 24.86 -10.4 13.4 77 -13.7 7.3
04:45 1013 29.91 842 24.86 -10 14 75 -13.6 7.5
04:50 1013 29.91 842 24.86 -9.9 14.2 75 -13.5 7.7
04:55 1013 29.91 842 24.86 -10 14 76 -13.5 7.7
05:00 1013 29.91 842 24.86 -9.9 14.3 73 -13.8 7.2
05:05 1013 29.91 842 24.86 -9.7 14.6 73 -13.7 7.4
05:10 1013 29.91 842 24.86 -9.5 14.9 73 -13.4 7.8
05:15 1013 29.91 842 24.86 -9.4 15.1 71 -13.7 7.4
05:20 1013 29.91 842 24.86 -9.4 15 71 -13.7 7.3
05:25 1013 29.91 842 24.86 -9.4 15.1 71 -13.7 7.3
05:30 1013 29.91 842 24.86 -9.3 15.3 71 -13.7 7.4
05:35 1013 29.91 842 24.86 -9.2 15.5 70 -13.7 7.4
05:40 1013 29.91 842 24.86 -9.1 15.6 72 -13.2 8.2
05:45 1013 29.91 842 24.86 -9.1 15.7 70 -13.5 7.6
05:50 1013 29.91 842 24.86 -9.2 15.5 70 -13.7 7.3
05:55 1013 29.91 842 24.86 -9.3 15.3 71 -13.6 7.5
06:00 1013 29.91 842 24.86 -9.5 14.9 71 -13.8 7.1
06:05 1013 29.91 842 24.86 -9.5 14.8 70 -14 6.8
06:10 1013 29.91 842 24.86 -9.5 14.8 73 -13.5 7.6
06:15 1013 29.91 842 24.86 -9.9 14.3 76 -13.4 7.9
06:20 1013 29.91 842 24.86 -10 13.9 76 -13.5 7.8
06:25 1013 29.91 842 24.86 -10.1 13.7 77 -13.5 7.7
06:30 1013 29.91 842 24.86 -10.2 13.6 76 -13.7 7.4
06:35 1013 29.91 842 24.86 -10.3 13.5 76 -13.7 7.4
06:40 1013 29.91 842 24.86 -10.1 13.8 75 -13.7 7.3
06:45 1013 29.91 842 24.86 -9.8 14.3 73 -13.8 7.1
06:50 1012 29.88 842 24.86 -9.6 14.7 71 -13.9 7
06:55 1012 29.88 842 24.86 -9.5 15 70 -13.9 7
07:00 1012 29.88 842 24.86 -9.5 15 70 -14 6.8
07:05 1012 29.88 842 24.86 -9.2 15.4 70 -13.7 7.3
07:10 1012 29.88 841 24.83 -9.3 15.3 71 -13.6 7.6
07:15 1012 29.88 842 24.86 -9.5 15 72 -13.6 7.5
07:20 1012 29.88 842 24.86 -9.6 14.7 74 -13.4 7.9
07:25 1012 29.88 842 24.86 -9.7 14.6 75 -13.3 8.1
07:30 1013 29.91 842 24.86 -9.6 14.6 75 -13.3 8
07:35 1012 29.88 842 24.86 -9.7 14.6 74 -13.5 7.7
07:40 1013 29.91 842 24.86 -9.9 14.2 76 -13.3 8
07:45 1013 29.91 842 24.86 -10.1 13.9 76 -13.5 7.6
07:50 1013 29.91 842 24.86 -10.1 13.9 75 -13.6 7.5
07:55 1013 29.91 842 24.86 -9.8 14.3 74 -13.6 7.5
08:00 1013 29.91 842 24.86 -9.8 14.3 70 -14.3 6.2
08:05 1013 29.91 842 24.86 -10 14 69 -14.7 5.6
08:10 1013 29.91 842 24.86 -10.2 13.7 70 -14.6 5.7
08:15 1013 29.91 842 24.86 -10.4 13.3 73 -14.4 6.2
08:20 1013 29.91 842 24.86 -10.7 12.8 74 -14.5 6
08:25 1013 29.91 842 24.86 -11 12.3 72 -15.1 4.8
08:30 1013 29.91 842 24.86 -10.7 12.7 69 -15.4 4.3
08:35 1013 29.91 842 24.86 -10.6 12.9 67 -15.6 4
08:40 1013 29.91 842 24.86 -10.5 13.1 66 -15.7 3.7
08:45 1013 29.91 842 24.86 -10.5 13.1 69 -15.1 4.7
08:50 1012 29.88 842 24.86 -11.1 12.1 72 -15.1 4.8
08:55 1012 29.88 842 24.86 -11.4 11.5 71 -15.6 3.9
09:00 1012 29.88 842 24.86 -11.2 11.9 72 -15.3 4.5
09:05 1012 29.88 842 24.86 -11.2 11.8 73 -15.2 4.7
09:10 1012 29.88 842 24.86 -11.3 11.7 72 -15.3 4.4
09:15 1012 29.88 842 24.86 -11.2 11.9 73 -15.1 4.8
09:20 1012 29.88 842 24.86 -11.2 11.9 75 -14.7 5.5
09:25 1012 29.88 842 24.86 -11.1 12.1 74 -14.8 5.4
09:30 1012 29.88 842 24.86 -10.8 12.5 72 -14.9 5.2
09:35 1012 29.88 842 24.86 -10.5 13.1 70 -14.9 5.2
09:40 1012 29.88 842 24.86 -10.5 13 70 -14.9 5.1
09:45 1012 29.88 841 24.83 -10.2 13.7 69 -14.8 5.3
09:50 1012 29.88 841 24.83 -10.1 13.7 68 -14.9 5.1
09:55 1012 29.88 841 24.83 -10.7 12.8 70 -15.2 4.7
10:00 1012 29.88 841 24.83 -10.6 12.9 69 -15.3 4.4
10:05 1012 29.88 841 24.83 -10.5 13.2 68 -15.3 4.4
10:10 1012 29.88 842 24.86 -10.2 13.7 68 -15 5.1
10:15 1012 29.88 842 24.86 -9.8 14.3 67 -14.8 5.4
10:20 1012 29.88 842 24.86 -9.5 15 66 -14.7 5.5
10:25 1012 29.88 841 24.83 -8.9 16 63 -14.7 5.6
10:30 1012 29.88 841 24.83 -8.4 16.8 62 -14.5 5.8
10:35 1012 29.88 842 24.86 -8.2 17.3 60 -14.6 5.7
10:40 1012 29.88 842 24.86 -8.1 17.5 58 -14.9 5.2
10:45 1012 29.88 842 24.86 -7.5 18.4 56 -14.9 5.1
10:50 1012 29.88 842 24.86 -7.1 19.2 57 -14.4 6.2
10:55 1012 29.88 842 24.86 -6.7 19.9 53 -14.8 5.4
11:00 1012 29.88 842 24.86 -6.2 20.9 52 -14.5 6
11:05 1012 29.88 842 24.86 -5.4 22.2 49 -14.5 5.8
11:10 1012 29.88 842 24.86 -5.1 22.8 48 -14.5 5.8
11:15 1012 29.88 842 24.86 -5.2 22.6 48 -14.7 5.6
11:20 1012 29.88 842 24.86 -4.8 23.3 45 -15.1 4.9
11:25 1012 29.88 842 24.86 -4.9 23.2 46 -14.8 5.4
11:30 1012 29.88 842 24.86 -4 24.8 45 -14.4 6.1
11:35 1013 29.91 842 24.86 -4.3 24.3 46 -14.2 6.5
11:40 1013 29.91 842 24.86 -4.3 24.2 47 -14.2 6.5
11:45 1012 29.88 842 24.86 -4.5 23.9 48 -14 6.9
11:50 1012 29.88 842 24.86 -4.4 24.1 47 -14.1 6.7
11:55 1012 29.88 842 24.86 -4.5 24 49 -13.7 7.4
12:00 1012 29.88 842 24.86 -4.4 24.2 50 -13.3 8
12:05 1012 29.88 842 24.86 -4.1 24.5 49 -13.5 7.7
12:10 1012 29.88 842 24.86 -4.4 24.1 50 -13.3 8.1
12:15 1012 29.88 842 24.86 -4.7 23.5 47 -14.4 6.1
12:20 1012 29.88 841 24.83 -4.8 23.3 47 -14.6 5.6
12:25 1012 29.88 841 24.83 -6.4 20.4 53 -14.5 6
12:30 1012 29.88 841 24.83 -5.6 21.9 49 -14.8 5.4
12:35 1012 29.88 841 24.83 -4.6 23.6 47 -14.2 6.4
12:40 1012 29.88 841 24.83 -4.7 23.6 48 -14.1 6.5
12:45 1012 29.88 841 24.83 -4.5 23.9 46 -14.5 5.9
12:50 1012 29.88 841 24.83 -4.3 24.3 44 -14.8 5.4
12:55 1012 29.88 841 24.83 -5.3 22.5 49 -14.5 5.9
13:00 1012 29.88 841 24.83 -5.8 21.6 49 -15 5
13:05 1012 29.88 841 24.83 -4.8 23.4 46 -14.8 5.4
13:10 1012 29.88 841 24.83 -5.1 22.9 49 -14.2 6.4
13:15 1012 29.88 841 24.83 -4.4 24.1 46 -14.3 6.2
13:20 1012 29.88 841 24.83 -4.1 24.7 43 -14.9 5.2
13:25 1012 29.88 841 24.83 -4.3 24.3 45 -14.4 6.1
13:30 1012 29.88 841 24.83 -4.2 24.4 47 -14.1 6.7
13:35 1012 29.88 841 24.83 -3.8 25.2 47 -13.6 7.5
13:40 1012 29.88 841 24.83 -4.3 24.3 48 -13.7 7.3
13:45 1012 29.88 841 24.83 -4.9 23.2 50 -13.9 7.1
13:50 1012 29.88 841 24.83 -5.4 22.2 51 -14 6.8
13:55 1012 29.88 841 24.83 -5.4 22.3 50 -14.2 6.5
14:00 1012 29.88 841 24.83 -5.4 22.2 48 -14.7 5.5
14:05 1011 29.85 841 24.83 -5.3 22.4 48 -14.8 5.3
14:10 1011 29.85 841 24.83 -5.2 22.7 47 -14.8 5.4
14:15 1011 29.85 841 24.83 -5.2 22.6 45 -15.3 4.4
14:20 1011 29.85 841 24.83 -5.5 22.1 48 -14.9 5.2
14:25 1011 29.85 841 24.83 -5.6 22 46 -15.4 4.4
14:30 1011 29.85 841 24.83 -5.2 22.6 46 -15.1 4.7
14:35 1011 29.85 840 24.81 -5.2 22.7 44 -15.7 3.7
14:40 1011 29.85 840 24.81 -5 23 42 -16 3.2
14:45 1011 29.85 840 24.81 -5 23 43 -15.8 3.6
14:50 1011 29.85 840 24.81 -4.9 23.1 42 -16 3.2
14:55 1011 29.85 840 24.81 -4.7 23.5 40 -16.3 2.6
15:00 1011 29.85 840 24.81 -4.3 24.3 39 -16.3 2.6
15:05 1011 29.85 840 24.81 -3.8 25.2 38 -16 3.1
15:10 1011 29.85 840 24.81 -3.6 25.5 38 -15.9 3.4
15:15 1011 29.85 840 24.81 -4 24.9 38 -16.5 2.4
15:20 1011 29.85 841 24.83 -4.1 24.6 39 -16.3 2.7
15:25 1011 29.85 840 24.81 -4 24.8 38 -16.4 2.6
15:30 1011 29.85 840 24.81 -4.1 24.6 39 -16.1 3
15:35 1011 29.85 840 24.81 -3.7 25.3 44 -14.3 6.3
15:40 1011 29.85 841 24.83 -3.4 25.8 44 -14.1 6.6
15:45 1011 29.85 841 24.83 -3.7 25.3 46 -13.7 7.4
15:50 1011 29.85 841 24.83 -4.4 24.1 49 -13.7 7.3
15:55 1011 29.85 841 24.83 -5.6 22 55 -13.3 8.1
16:00 1011 29.85 841 24.83 -6.1 21.1 54 -13.9 7.1
16:05 1011 29.85 841 24.83 -5.3 22.5 51 -13.9 7
16:10 1011 29.85 841 24.83 -5.2 22.7 52 -13.7 7.4
16:15 1011 29.85 841 24.83 -6.1 21.1 54 -14 6.9
16:20 1011 29.85 841 24.83 -6.2 20.9 53 -14.4 6.2
16:25 1012 29.88 841 24.83 -6 21.1 53 -14.1 6.7
16:30 1012 29.88 841 24.83 -5.3 22.5 50 -14.2 6.4
16:35 1012 29.88 841 24.83 -5 22.9 50 -14 6.8
16:40 1012 29.88 841 24.83 -5.3 22.5 52 -13.8 7.2
16:45 1012 29.88 841 24.83 -5.5 22.1 52 -13.9 6.9
16:50 1012 29.88 841 24.83 -5.5 22 52 -13.8 7.1
16:55 1012 29.88 841 24.83 -5.6 22 53 -13.6 7.5
17:00 1012 29.88 841 24.83 -6.1 21 56 -13.5 7.7
17:05 1012 29.88 841 24.83 -6.4 20.5 57 -13.6 7.5
17:10 1012 29.88 841 24.83 -6.5 20.3 57 -13.7 7.3
17:15 1012 29.88 841 24.83 -6.7 19.9 57 -13.8 7.1
17:20 1012 29.88 841 24.83 -6.9 19.6 57 -14 6.9
17:25 1012 29.88 841 24.83 -7 19.5 57 -14.2 6.5
17:30 1012 29.88 841 24.83 -7.1 19.2 58 -14.1 6.6
17:35 1012 29.88 841 24.83 -7.2 19 58 -14.2 6.4
17:40 1012 29.88 841 24.83 -7.3 18.9 58 -14.1 6.6
17:45 1012 29.88 841 24.83 -7.5 18.5 60 -14.1 6.7
17:50 1012 29.88 841 24.83 -7.9 17.9 60 -14.4 6.1
17:55 1012 29.88 841 24.83 -8.2 17.3 62 -14.3 6.3
18:00 1012 29.88 841 24.83 -8.2 17.2 62 -14.3 6.2
18:05 1012 29.88 841 24.83 -8.4 17 62 -14.3 6.2
18:10 1012 29.88 841 24.83 -8.4 17 61 -14.6 5.7
18:15 1012 29.88 841 24.83 -8.2 17.3 61 -14.4 6.1
18:20 1012 29.88 841 24.83 -8.1 17.5 61 -14.4 6.1
18:25 1012 29.88 841 24.83 -8.2 17.3 62 -14.3 6.3
18:30 1012 29.88 841 24.83 -8.3 17 60 -14.7 5.5
18:35 1012 29.88 841 24.83 -8.3 17 61 -14.5 5.9
18:40 1012 29.88 842 24.86 -8.4 16.9 62 -14.4 6
18:45 1012 29.88 842 24.86 -8.5 16.7 62 -14.6 5.8
18:50 1012 29.88 842 24.86 -8.6 16.5 62 -14.6 5.7
18:55 1012 29.88 842 24.86 -8.7 16.3 61 -14.9 5.2
19:00 1012 29.88 841 24.83 -8.7 16.3 62 -14.8 5.3
19:05 1012 29.88 841 24.83 -8.8 16.2 62 -14.7 5.5
19:10 1012 29.88 841 24.83 -8.8 16.2 63 -14.5 5.8
19:15 1012 29.88 841 24.83 -8.8 16.2 63 -14.6 5.8
19:20 1012 29.88 841 24.83 -8.7 16.3 63 -14.5 5.8
19:25 1012 29.88 842 24.86 -8.6 16.5 63 -14.5 5.9
19:30 1012 29.88 842 24.86 -8.6 16.5 62 -14.7 5.5
19:35 1012 29.88 842 24.86 -8.8 16.3 63 -14.6 5.8
19:40 1012 29.88 842 24.86 -8.8 16.2 63 -14.5 5.8
19:45 1012 29.88 842 24.86 -8.8 16.2 63 -14.6 5.8
19:50 1012 29.88 842 24.86 -8.8 16.1 63 -14.6 5.7
19:55 1012 29.88 842 24.86 -8.8 16.2 61 -15 4.9
20:00 1012 29.88 842 24.86 -8.7 16.3 60 -15.2 4.7
20:05 1012 29.88 842 24.86 -8.7 16.4 61 -14.9 5.1
20:10 1013 29.91 842 24.86 -8.7 16.3 61 -15.1 4.9
20:15 1013 29.91 842 24.86 -8.9 16.1 61 -15.1 4.9
20:20 1013 29.91 842 24.86 -9 15.9 62 -15.1 4.9
20:25 1013 29.91 842 24.86 -9.1 15.7 62 -15.1 4.7
20:30 1013 29.91 842 24.86 -9 15.7 62 -15 5
20:35 1013 29.91 842 24.86 -9 15.9 62 -14.9 5.2
20:40 1013 29.91 842 24.86 -9.1 15.6 66 -14.4 6.1
20:45 1013 29.91 842 24.86 -9.4 15.1 68 -14.3 6.2
20:50 1013 29.91 842 24.86 -9.4 15 68 -14.2 6.4
20:55 1013 29.91 842 24.86 -9.3 15.3 64 -14.9 5.1
21:00 1013 29.91 842 24.86 -9.3 15.3 65 -14.7 5.5
21:05 1013 29.91 842 24.86 -9.3 15.3 66 -14.5 5.9
21:10 1013 29.91 842 24.86 -9.2 15.5 65 -14.6 5.7
21:15 1013 29.91 842 24.86 -9.2 15.5 63 -15 5.1
21:20 1013 29.91 842 24.86 -9.1 15.6 64 -14.6 5.6
21:25 1013 29.91 842 24.86 -9 15.9 65 -14.5 6
21:30 1013 29.91 842 24.86 -8.9 15.9 64 -14.6 5.7
21:35 1013 29.91 842 24.86 -8.9 16.1 65 -14.4 6.1
21:40 1013 29.91 842 24.86 -8.8 16.3 65 -14.1 6.6
21:45 1013 29.91 842 24.86 -8.7 16.3 65 -14.2 6.4
21:50 1013 29.91 842 24.86 -8.8 16.1 65 -14.3 6.2
21:55 1013 29.91 842 24.86 -8.7 16.3 65 -14.2 6.4
22:00 1013 29.91 842 24.86 -8.6 16.5 64 -14.2 6.4
22:05 1013 29.91 842 24.86 -8.6 16.5 65 -14.1 6.6
22:10 1013 29.91 842 24.86 -8.6 16.5 66 -13.9 7.1
22:15 1013 29.91 842 24.86 -8.6 16.4 65 -14.1 6.7
22:20 1013 29.91 842 24.86 -9 15.9 66 -14.3 6.3
22:25 1013 29.91 842 24.86 -9.1 15.7 64 -14.6 5.7
22:30 1013 29.91 842 24.86 -9.2 15.5 68 -14.1 6.6
22:35 1013 29.91 842 24.86 -9.2 15.5 67 -14.2 6.5
22:40 1013 29.91 842 24.86 -9.1 15.6 68 -14 6.9
22:45 1013 29.91 842 24.86 -9.1 15.7 68 -14 6.9
22:50 1013 29.91 842 24.86 -9 15.8 68 -13.9 7
22:55 1013 29.91 842 24.86 -9.1 15.7 69 -13.7 7.3
23:00 1013 29.91 842 24.86 -9 15.7 69 -13.7 7.4
23:05 1013 29.91 842 24.86 -9.1 15.5 69 -13.8 7.1
23:10 1013 29.91 842 24.86 -9.1 15.6 70 -13.7 7.4
23:15 1013 29.91 842 24.86 -9.1 15.7 70 -13.6 7.6
23:20 1013 29.91 842 24.86 -9.1 15.6 71 -13.4 7.8
23:25 1013 29.91 842 24.86 -9.2 15.5 70 -13.7 7.4
23:30 1013 29.91 842 24.86 -9.2 15.5 70 -13.6 7.4
23:35 1013 29.91 842 24.86 -9.1 15.6 70 -13.6 7.6
23:40 1013 29.91 842 24.86 -9.1 15.5 71 -13.5 7.7
23:45 1013 29.91 842 24.86 -9.2 15.5 71 -13.6 7.5
23:50 1013 29.91 842 24.86 -9.1 15.5 68 -14.1 6.7
23:55 1013 29.91 842 24.86 -9.1 15.6 68 -14.1 6.7
24:00 1013 29.91 842 24.86 -9.1 15.7 68 -13.9 7